createdAt,value
2023-03-03T00:02:20.099Z,97587.56
2023-03-03T00:04:53.725Z,97580.70
2023-03-03T00:07:27.099Z,97588.42
2023-03-03T00:10:00.732Z,97579.12
2023-03-03T00:12:36.383Z,97570.55
2023-03-03T00:15:19.208Z,97573.23
2023-03-03T00:17:53.090Z,97574.14
2023-03-03T00:20:36.834Z,97563.89
2023-03-03T00:23:32.263Z,97555.34
2023-03-03T00:26:09.145Z,97548.57
2023-03-03T00:28:48.387Z,97557.09
2023-03-03T00:31:23.453Z,97541.70
2023-03-03T00:33:59.954Z,97538.31
2023-03-03T00:36:38.300Z,97531.54
2023-03-03T00:39:21.396Z,97542.65
2023-03-03T00:41:54.886Z,97536.72
2023-03-03T00:44:42.858Z,97543.50
2023-03-03T00:50:30.730Z,97527.59
2023-03-03T00:53:10.068Z,97519.66
2023-03-03T00:55:43.334Z,97518.92
2023-03-03T00:58:18.659Z,97512.94
2023-03-03T01:00:53.646Z,97505.25
2023-03-03T01:03:29.783Z,97494.16
2023-03-03T01:06:03.250Z,97504.51
2023-03-03T01:08:38.339Z,97507.10
2023-03-03T01:11:18.431Z,97518.21
2023-03-03T01:13:54.237Z,97502.83
2023-03-03T01:16:27.757Z,97497.70
2023-03-03T01:19:01.547Z,97488.35
2023-03-03T01:21:35.367Z,97496.98
2023-03-03T01:24:09.930Z,97494.36
2023-03-03T01:26:43.509Z,97499.48
2023-03-03T01:29:17.011Z,97492.66
2023-03-03T01:31:50.609Z,97494.31
2023-03-03T01:34:24.055Z,97500.28
2023-03-03T01:36:57.843Z,97489.20
2023-03-03T01:39:31.336Z,97491.80
2023-03-03T01:42:06.007Z,97483.25
2023-03-03T01:44:39.592Z,97475.58
2023-03-03T01:47:16.304Z,97476.47
2023-03-03T01:49:52.960Z,97474.75
2023-03-03T01:52:29.152Z,97483.30
2023-03-03T01:55:05.802Z,97470.45
2023-03-03T01:57:41.917Z,97487.53
2023-03-03T02:00:17.952Z,97473.79
2023-03-03T02:02:52.525Z,97471.25
2023-03-03T02:05:26.676Z,97454.05
2023-03-03T02:08:00.170Z,97475.58
2023-03-03T02:10:34.816Z,97470.53
2023-03-03T02:13:08.615Z,97454.27
2023-03-03T02:15:42.599Z,97456.03
2023-03-03T02:18:18.449Z,97447.50
2023-03-03T02:20:57.718Z,97446.59
2023-03-03T02:23:34.634Z,97438.08
2023-03-03T02:26:13.881Z,97435.53
2023-03-03T02:28:48.227Z,97427.79
2023-03-03T02:31:24.538Z,97432.94
2023-03-03T02:33:59.791Z,97419.29
2023-03-03T02:36:35.153Z,97435.59
2023-03-03T02:39:11.561Z,97431.31
2023-03-03T02:41:48.716Z,97427.12
2023-03-03T02:44:21.887Z,97431.52
2023-03-03T02:46:56.672Z,97426.47
2023-03-03T02:49:32.280Z,97428.98
2023-03-03T02:52:09.992Z,97421.28
2023-03-03T02:54:45.182Z,97421.34
2023-03-03T02:57:18.637Z,97421.38
2023-03-03T02:59:51.954Z,97412.86
2023-03-03T03:02:27.013Z,97433.41
2023-03-03T03:05:01.174Z,97424.86
2023-03-03T03:07:34.676Z,97425.73
2023-03-03T03:10:11.443Z,97434.36
2023-03-03T03:12:45.453Z,97417.25
2023-03-03T03:15:19.745Z,97419.82
2023-03-03T03:17:53.641Z,97417.31
2023-03-03T03:20:27.267Z,97419.88
2023-03-03T03:23:00.917Z,97418.16
2023-03-03T03:25:34.492Z,97418.97
2023-03-03T03:28:08.661Z,97419.02
2023-03-03T03:30:44.349Z,97413.88
2023-03-03T03:33:17.909Z,97405.30
2023-03-03T03:35:51.675Z,97394.16
2023-03-03T03:38:25.950Z,97400.17
2023-03-03T03:41:00.465Z,97395.09
2023-03-03T03:43:34.159Z,97398.48
2023-03-03T03:46:09.186Z,97395.89
2023-03-03T03:48:42.854Z,97396.72
2023-03-03T03:51:17.107Z,97395.85
2023-03-03T03:53:50.494Z,97386.42
2023-03-03T03:56:24.147Z,97385.59
2023-03-03T03:58:59.075Z,97381.33
2023-03-03T04:01:32.658Z,97383.06
2023-03-03T04:04:06.297Z,97376.20
2023-03-03T04:06:39.953Z,97374.49
2023-03-03T04:09:13.792Z,97369.31
2023-03-03T04:11:48.341Z,97366.72
2023-03-03T04:14:22.941Z,97367.52
2023-03-03T04:16:56.541Z,97372.66
2023-03-03T04:19:30.552Z,97365.04
2023-03-03T04:22:04.182Z,97373.54
2023-03-03T04:24:37.854Z,97372.63
2023-03-03T04:27:11.834Z,97364.09
2023-03-03T04:29:48.291Z,97365.75
2023-03-03T04:32:24.280Z,97364.89
2023-03-03T04:35:07.325Z,97356.33
2023-03-03T04:37:37.903Z,97365.72
2023-03-03T04:40:14.251Z,97358.88
2023-03-03T04:42:49.400Z,97364.01
2023-03-03T04:45:23.493Z,97356.39
2023-03-03T04:47:56.987Z,97356.31
2023-03-03T04:50:30.424Z,97357.14
2023-03-03T04:53:04.592Z,97356.29
2023-03-03T04:55:40.194Z,97352.09
2023-03-03T04:58:14.140Z,97364.09
2023-03-03T05:00:47.804Z,97366.67
2023-03-03T05:03:22.170Z,97368.33
2023-03-03T05:05:55.988Z,97379.52
2023-03-03T05:08:29.587Z,97366.70
2023-03-03T05:11:02.981Z,97376.95
2023-03-03T05:13:36.575Z,97371.85
2023-03-03T05:16:11.185Z,97372.76
2023-03-03T05:18:45.769Z,97367.62
2023-03-03T05:21:19.408Z,97371.04
2023-03-03T05:23:53.526Z,97362.53
2023-03-03T05:26:27.011Z,97374.53
2023-03-03T05:29:00.512Z,97369.45
2023-03-03T05:31:34.542Z,97374.58
2023-03-03T05:34:08.057Z,97375.44
2023-03-03T05:36:41.692Z,97377.13
2023-03-03T05:39:15.216Z,97361.86
2023-03-03T05:41:48.726Z,97373.80
2023-03-03T05:44:21.988Z,97367.00
2023-03-03T05:46:56.814Z,97373.87
2023-03-03T05:49:30.116Z,97384.14
2023-03-03T05:52:03.884Z,97375.53
2023-03-03T05:54:37.276Z,97378.03
2023-03-03T05:57:10.760Z,97383.14
2023-03-03T05:59:44.246Z,97383.97
2023-03-03T06:02:18.043Z,97375.39
2023-03-03T06:04:51.573Z,97377.10
2023-03-03T06:07:24.951Z,97371.23
2023-03-03T06:10:00.907Z,97389.25
2023-03-03T06:12:36.145Z,97391.05
2023-03-03T06:15:11.837Z,97380.94
2023-03-03T06:17:45.192Z,97373.34
2023-03-03T06:20:18.880Z,97384.56
2023-03-03T06:22:52.192Z,97384.60
2023-03-03T06:25:25.655Z,97376.05
2023-03-03T06:27:58.828Z,97382.94
2023-03-03T06:30:32.392Z,97372.78
2023-03-03T06:33:06.174Z,97382.23
2023-03-03T06:35:40.016Z,97390.75
2023-03-03T06:38:13.707Z,97385.55
2023-03-03T06:40:48.357Z,97383.81
2023-03-03T06:43:22.090Z,97395.89
2023-03-03T06:45:55.503Z,97395.02
2023-03-03T06:48:29.111Z,97385.74
2023-03-03T06:51:04.035Z,97383.20
2023-03-03T06:53:38.084Z,97383.11
2023-03-03T06:56:13.509Z,97393.32
2023-03-03T06:58:46.934Z,97383.91
2023-03-03T07:01:20.840Z,97383.12
2023-03-03T07:03:54.272Z,97390.02
2023-03-03T07:06:30.210Z,97385.74
2023-03-03T07:09:03.894Z,97390.07
2023-03-03T07:11:39.781Z,97386.63
2023-03-03T07:14:16.671Z,97394.41
2023-03-03T07:16:51.912Z,97394.39
2023-03-03T07:19:28.239Z,97388.37
2023-03-03T07:22:02.104Z,97392.66
2023-03-03T07:24:35.771Z,97397.81
2023-03-03T07:27:14.257Z,97386.72
2023-03-03T07:29:49.645Z,97392.84
2023-03-03T07:32:29.881Z,97394.59
2023-03-03T07:35:03.403Z,97404.02
2023-03-03T07:37:40.463Z,97400.63
2023-03-03T07:40:36.225Z,97407.44
2023-03-03T07:43:41.220Z,97398.93
2023-03-03T07:49:27.570Z,97399.94
2023-03-03T07:52:02.578Z,97399.80
2023-03-03T07:54:40.648Z,97411.02
2023-03-03T07:57:19.260Z,97423.91
2023-03-03T07:59:54.718Z,97409.26
2023-03-03T08:02:37.744Z,97408.44
2023-03-03T08:05:32.223Z,97404.14
2023-03-03T08:08:19.481Z,97426.36
2023-03-03T08:10:54.612Z,97412.66
2023-03-03T08:13:31.933Z,97417.78
2023-03-03T08:16:09.400Z,97417.86
2023-03-03T08:18:46.620Z,97421.36
2023-03-03T08:21:22.310Z,97410.25
2023-03-03T08:23:56.205Z,97424.03
2023-03-03T08:26:29.780Z,97418.16
2023-03-03T08:29:04.571Z,97418.09
2023-03-03T08:31:41.548Z,97420.75
2023-03-03T08:34:13.061Z,97422.63
2023-03-03T08:36:47.601Z,97420.06
2023-03-03T08:39:21.019Z,97418.44
2023-03-03T08:41:54.439Z,97427.10
2023-03-03T08:44:27.998Z,97422.95
2023-03-03T08:47:01.397Z,97419.69
2023-03-03T08:49:35.007Z,97429.24
2023-03-03T08:52:08.410Z,97433.49
2023-03-03T08:54:42.095Z,97441.17
2023-03-03T08:57:15.929Z,97437.66
2023-03-03T08:59:49.554Z,97428.24
2023-03-03T09:02:23.078Z,97436.89
2023-03-03T09:04:56.572Z,97429.34
2023-03-03T09:07:30.170Z,97428.66
2023-03-03T09:10:03.705Z,97434.84
2023-03-03T09:12:39.532Z,97422.20
2023-03-03T09:15:23.673Z,97411.16
2023-03-03T09:17:59.241Z,97414.70
2023-03-03T09:20:36.859Z,97420.92
2023-03-03T09:23:33.892Z,97415.06
2023-03-03T09:26:24.470Z,97427.18
2023-03-03T09:29:01.615Z,97418.56
2023-03-03T09:31:39.040Z,97417.58
2023-03-03T09:34:25.347Z,97424.42
2023-03-03T09:37:00.234Z,97420.12
2023-03-03T09:39:35.787Z,97426.93
2023-03-03T09:42:32.209Z,97422.67
2023-03-03T09:45:45.340Z,97429.58
2023-03-03T09:48:37.435Z,97427.84
2023-03-03T09:51:33.817Z,97429.48
2023-03-03T09:54:26.285Z,97444.70
2023-03-03T09:57:04.260Z,97447.05
2023-03-03T09:59:45.210Z,97450.28
2023-03-03T10:02:33.988Z,97434.81
2023-03-03T10:05:18.702Z,97429.64
2023-03-03T10:08:04.566Z,97433.14
2023-03-03T10:11:00.612Z,97435.92
2023-03-03T10:13:40.803Z,97431.11
2023-03-03T10:16:35.304Z,97425.37
2023-03-03T10:19:14.832Z,97422.02
2023-03-03T10:21:51.060Z,97425.50
2023-03-03T10:24:29.938Z,97412.63
2023-03-03T10:27:13.841Z,97421.92
2023-03-03T10:29:50.746Z,97415.77
2023-03-03T10:32:40.506Z,97420.72
2023-03-03T10:36:05.972Z,97430.91
2023-03-03T10:38:33.766Z,97441.22
2023-03-03T10:41:15.766Z,97421.40
2023-03-03T10:44:16.680Z,97423.88
2023-03-03T10:47:05.688Z,97419.56
2023-03-03T10:49:52.352Z,97410.98
2023-03-03T10:52:40.948Z,97423.86
2023-03-03T10:55:38.314Z,97430.94
2023-03-03T10:58:55.315Z,97416.48
2023-03-03T11:01:33.791Z,97427.77
2023-03-03T11:04:38.629Z,97436.47
2023-03-03T11:07:15.568Z,97432.30
2023-03-03T11:09:56.725Z,97439.23
2023-03-03T11:12:41.072Z,97440.93
2023-03-03T11:15:39.285Z,97439.05
2023-03-03T11:18:21.134Z,97428.86
2023-03-03T11:20:59.760Z,97442.77
2023-03-03T11:23:46.884Z,97451.42
2023-03-03T11:26:24.899Z,97432.47
2023-03-03T11:29:12.668Z,97433.25
2023-03-03T11:31:49.825Z,97428.81
2023-03-03T11:34:38.089Z,97437.30
2023-03-03T11:37:14.120Z,97438.22
2023-03-03T11:39:48.524Z,97434.31
2023-03-03T11:42:26.242Z,97434.36
2023-03-03T11:45:03.832Z,97439.52
2023-03-03T11:47:39.486Z,97438.73
2023-03-03T11:50:16.637Z,97442.16
2023-03-03T11:52:53.842Z,97449.85
2023-03-03T11:55:29.651Z,97448.95
2023-03-03T11:58:08.424Z,97438.53
2023-03-03T12:00:44.869Z,97448.79
2023-03-03T12:03:25.645Z,97450.58
2023-03-03T12:06:06.322Z,97450.70
2023-03-03T12:08:48.352Z,97436.06
2023-03-03T12:11:25.415Z,97441.17
2023-03-03T12:14:03.547Z,97442.89
2023-03-03T12:16:47.223Z,97441.27
2023-03-03T12:19:34.671Z,97439.53
2023-03-03T12:22:17.014Z,97437.73
2023-03-03T12:25:09.264Z,97430.67
2023-03-03T12:27:46.532Z,97430.69
2023-03-03T12:30:24.908Z,97415.14
2023-03-03T12:33:06.909Z,97426.17
2023-03-03T12:35:43.524Z,97419.17
2023-03-03T12:38:22.207Z,97444.74
2023-03-03T12:41:01.731Z,97437.76
2023-03-03T12:43:45.622Z,97435.93
2023-03-03T12:46:28.517Z,97445.30
2023-03-03T12:48:58.939Z,97435.83
2023-03-03T12:51:39.473Z,97434.25
2023-03-03T12:54:25.945Z,97445.47
2023-03-03T12:57:02.360Z,97440.41
2023-03-03T12:59:39.746Z,97441.33
2023-03-03T13:02:34.620Z,97447.37
2023-03-03T13:05:14.324Z,97453.53
2023-03-03T13:07:51.684Z,97454.53
2023-03-03T13:10:28.319Z,97446.72
2023-03-03T13:13:04.618Z,97452.64
2023-03-03T13:15:51.873Z,97450.80
2023-03-03T13:18:38.462Z,97462.77
2023-03-03T13:21:15.172Z,97455.85
2023-03-03T13:23:53.802Z,97460.09
2023-03-03T13:26:31.972Z,97456.62
2023-03-03T13:29:13.282Z,97456.68
2023-03-03T13:31:50.175Z,97440.41
2023-03-03T13:34:32.916Z,97459.20
2023-03-03T13:37:09.114Z,97460.91
2023-03-03T13:39:45.293Z,97459.16
2023-03-03T13:42:21.782Z,97459.25
2023-03-03T13:44:57.119Z,97457.71
2023-03-03T13:47:34.363Z,97456.70
2023-03-03T13:50:16.617Z,97452.62
2023-03-03T13:52:55.542Z,97439.96
2023-03-03T13:55:32.444Z,97448.64
2023-03-03T13:58:10.192Z,97440.81
2023-03-03T14:00:57.349Z,97439.98
2023-03-03T14:03:52.533Z,97442.52
2023-03-03T14:06:28.097Z,97431.98
2023-03-03T14:09:10.351Z,97431.75
2023-03-03T14:11:49.711Z,97416.33
2023-03-03T14:14:31.374Z,97437.36
2023-03-03T14:17:07.876Z,97437.39
2023-03-03T14:19:44.076Z,97444.91
2023-03-03T14:22:24.410Z,97451.49
2023-03-03T14:25:05.420Z,97440.87
2023-03-03T14:27:41.421Z,97454.30
2023-03-03T14:33:31.040Z,97438.41
2023-03-03T14:36:07.437Z,97460.53
2023-03-03T14:38:44.601Z,97455.24
2023-03-03T14:41:38.334Z,97462.02
2023-03-03T14:44:33.323Z,97461.07
2023-03-03T14:47:24.232Z,97457.57
2023-03-03T14:50:00.591Z,97453.25
2023-03-03T14:52:35.977Z,97454.05
2023-03-03T14:55:29.107Z,97460.04
2023-03-03T14:58:04.286Z,97463.33
2023-03-03T15:00:38.624Z,97461.59
2023-03-03T15:03:24.752Z,97466.73
2023-03-03T15:05:59.018Z,97471.05
2023-03-03T15:08:37.472Z,97469.37
2023-03-03T15:11:24.033Z,97473.62
2023-03-03T15:14:08.002Z,97480.50
2023-03-03T15:16:43.211Z,97475.38
2023-03-03T15:19:40.865Z,97479.64
2023-03-03T15:22:22.397Z,97475.32
2023-03-03T15:25:01.042Z,97483.05
2023-03-03T15:27:38.373Z,97478.77
2023-03-03T15:30:19.180Z,97479.64
2023-03-03T15:32:57.568Z,97489.88
2023-03-03T15:35:38.670Z,97493.36
2023-03-03T15:38:18.027Z,97490.77
2023-03-03T15:40:54.224Z,97485.61
2023-03-03T15:43:31.334Z,97493.36
2023-03-03T15:46:12.303Z,97484.72
2023-03-03T15:48:54.082Z,97495.01
2023-03-03T15:51:38.233Z,97500.97
2023-03-03T15:54:23.757Z,97497.56
2023-03-03T15:57:00.161Z,97495.83
2023-03-03T15:59:46.181Z,97497.56
2023-03-03T16:02:25.912Z,97495.83
2023-03-03T16:05:02.135Z,97494.96
2023-03-03T16:07:42.477Z,97496.72
2023-03-03T16:10:22.828Z,97500.14
2023-03-03T16:13:01.884Z,97498.38
2023-03-03T16:15:43.700Z,97497.55
2023-03-03T16:18:21.988Z,97506.92
2023-03-03T16:21:01.744Z,97499.19
2023-03-03T16:23:40.252Z,97505.16
2023-03-03T16:26:19.143Z,97490.59
2023-03-03T16:29:03.802Z,97485.44
2023-03-03T16:31:40.890Z,97489.73
2023-03-03T16:34:17.797Z,97499.17
2023-03-03T16:37:01.942Z,97484.58
2023-03-03T16:39:43.199Z,97497.41
2023-03-03T16:42:21.788Z,97495.70
2023-03-03T16:45:16.564Z,97483.67
2023-03-03T16:47:57.648Z,97499.10
2023-03-03T16:50:34.988Z,97491.38
2023-03-03T16:53:14.127Z,97499.92
2023-03-03T16:55:52.383Z,97502.51
2023-03-03T16:58:32.011Z,97499.90
2023-03-03T17:01:10.099Z,97489.58
2023-03-03T17:03:55.159Z,97505.84
2023-03-03T17:06:34.708Z,97485.27
2023-03-03T17:09:32.212Z,97486.94
2023-03-03T17:12:02.683Z,97486.07
2023-03-03T17:14:44.285Z,97487.73
2023-03-03T17:17:22.152Z,97492.03
2023-03-03T17:20:00.900Z,97486.05
2023-03-03T17:22:39.305Z,97486.92
2023-03-03T17:25:16.684Z,97485.13
2023-03-03T17:27:59.051Z,97491.94
2023-03-03T17:30:38.072Z,97489.35
2023-03-03T17:33:19.297Z,97497.90
2023-03-03T17:36:00.585Z,97500.45
2023-03-03T17:38:46.453Z,97475.44
2023-03-03T17:41:24.206Z,97485.80
2023-03-03T17:43:58.087Z,97484.92
2023-03-03T17:46:36.655Z,97486.70
2023-03-03T17:49:38.320Z,97492.59
2023-03-03T17:52:37.404Z,97487.45
2023-03-03T17:55:28.439Z,97489.14
2023-03-03T17:58:33.964Z,97495.94
2023-03-03T18:01:11.889Z,97489.91
2023-03-03T18:03:58.339Z,97492.48
2023-03-03T18:06:54.832Z,97487.30
2023-03-03T18:09:46.706Z,97490.70
2023-03-03T18:12:26.279Z,97491.54
2023-03-03T18:15:23.562Z,97488.91
2023-03-03T18:18:10.014Z,97496.56
2023-03-03T18:24:19.070Z,97487.21
2023-03-03T18:26:56.257Z,97484.08
2023-03-03T18:29:33.217Z,97482.69
2023-03-03T18:35:30.551Z,97484.58
2023-03-03T18:38:47.059Z,97486.86
2023-03-03T18:44:05.064Z,97480.94
2023-03-03T18:46:52.982Z,97473.77
2023-03-03T18:50:14.467Z,97482.34
2023-03-03T18:53:20.776Z,97476.25
2023-03-03T18:55:57.988Z,97480.44
2023-03-03T18:58:38.369Z,97483.80
2023-03-03T19:01:47.612Z,97483.77
2023-03-03T19:04:27.144Z,97485.41
2023-03-03T19:07:27.849Z,97485.34
2023-03-03T19:10:03.993Z,97485.23
2023-03-03T19:12:55.580Z,97478.31
2023-03-03T19:18:39.198Z,97486.02
2023-03-03T19:21:24.248Z,97489.03
2023-03-03T19:24:01.243Z,97480.27
2023-03-03T19:26:45.064Z,97491.30
2023-03-03T19:29:42.374Z,97487.72
2023-03-03T19:32:32.889Z,97483.28
2023-03-03T19:35:18.537Z,97484.84
2023-03-03T19:37:56.665Z,97487.30
2023-03-03T19:40:35.177Z,97482.06
2023-03-03T19:43:15.643Z,97493.94
2023-03-03T19:45:57.814Z,97492.17
2023-03-03T19:48:37.304Z,97485.25
2023-03-03T19:51:15.611Z,97485.16
2023-03-03T19:53:54.331Z,97488.45
2023-03-03T19:56:33.637Z,97490.05
2023-03-03T19:59:24.581Z,97483.13
2023-03-03T20:02:06.505Z,97477.09
2023-03-03T20:05:19.812Z,97479.56
2023-03-03T20:07:57.998Z,97472.63
2023-03-03T20:13:46.267Z,97461.73
2023-03-03T20:16:28.028Z,97469.19
2023-03-03T20:19:26.272Z,97459.77
2023-03-03T20:22:08.318Z,97462.39
2023-03-03T20:25:02.250Z,97458.17
2023-03-03T20:27:39.943Z,97463.36
2023-03-03T20:30:31.523Z,97461.68
2023-03-03T20:33:14.133Z,97453.23
2023-03-03T20:35:52.935Z,97454.14
2023-03-03T20:38:31.545Z,97448.13
2023-03-03T20:41:09.840Z,97445.63
2023-03-03T20:43:51.491Z,97450.80
2023-03-03T20:46:29.114Z,97449.16
2023-03-03T20:49:05.901Z,97446.59
2023-03-03T20:51:42.546Z,97436.37
2023-03-03T20:54:20.764Z,97444.03
2023-03-03T20:56:57.610Z,97440.61
2023-03-03T20:59:34.168Z,97442.34
2023-03-03T21:02:12.931Z,97444.14
2023-03-03T21:04:46.468Z,97444.09
2023-03-03T21:07:29.405Z,97446.65
2023-03-03T21:10:16.631Z,97438.96
2023-03-03T21:12:50.358Z,97433.83
2023-03-03T21:15:36.021Z,97437.31
2023-03-03T21:18:24.777Z,97439.02
2023-03-03T21:20:58.327Z,97427.05
2023-03-03T21:23:32.065Z,97429.53
2023-03-03T21:26:54.996Z,97418.43
2023-03-03T21:29:34.882Z,97425.23
2023-03-03T21:32:17.541Z,97422.67
2023-03-03T21:35:12.629Z,97419.23
2023-03-03T21:37:55.061Z,97426.91
2023-03-03T21:40:31.208Z,97417.44
2023-03-03T21:43:04.437Z,97417.46
2023-03-03T21:45:38.419Z,97417.34
2023-03-03T21:48:11.972Z,97414.88
2023-03-03T21:50:47.326Z,97409.74
2023-03-03T21:53:20.972Z,97406.41
2023-03-03T21:55:54.890Z,97403.02
2023-03-03T21:58:28.320Z,97392.77
2023-03-03T22:01:01.885Z,97392.71
2023-03-03T22:03:35.725Z,97390.14
2023-03-03T22:06:09.709Z,97388.47
2023-03-03T22:08:43.135Z,97382.57
2023-03-03T22:11:16.794Z,97388.52
2023-03-03T22:13:50.455Z,97386.87
2023-03-03T22:16:23.889Z,97379.23
2023-03-03T22:18:57.479Z,97381.88
2023-03-03T22:21:31.304Z,97380.20
2023-03-03T22:24:05.223Z,97388.80
2023-03-03T22:26:38.954Z,97387.88
2023-03-03T22:29:12.302Z,97384.39
2023-03-03T22:31:46.084Z,97386.90
2023-03-03T22:34:20.524Z,97380.92
2023-03-03T22:36:53.951Z,97392.83
2023-03-03T22:39:27.132Z,97380.83
2023-03-03T22:42:00.876Z,97384.28
2023-03-03T22:44:35.997Z,97382.57
2023-03-03T22:47:09.772Z,97382.59
2023-03-03T22:49:43.314Z,97376.62
2023-03-03T22:52:18.052Z,97383.42
2023-03-03T22:54:51.656Z,97377.30
2023-03-03T22:57:25.451Z,97379.87
2023-03-03T23:00:00.084Z,97377.39
2023-03-03T23:02:35.040Z,97379.09
2023-03-03T23:05:11.182Z,97365.45
2023-03-03T23:07:44.548Z,97371.41
2023-03-03T23:10:17.336Z,97367.08
2023-03-03T23:12:50.695Z,97363.64
2023-03-03T23:15:24.322Z,97360.19
2023-03-03T23:17:57.963Z,97351.67
2023-03-03T23:20:32.558Z,97351.63
2023-03-03T23:23:06.160Z,97354.10
2023-03-03T23:25:39.691Z,97350.64
2023-03-03T23:28:14.846Z,97349.73
2023-03-03T23:30:48.344Z,97354.00
2023-03-03T23:33:22.155Z,97340.22
2023-03-03T23:35:56.056Z,97349.56
2023-03-03T23:38:31.582Z,97352.89
2023-03-03T23:41:05.649Z,97333.99
2023-03-03T23:43:39.359Z,97328.73
2023-03-03T23:46:12.896Z,97328.47
2023-03-03T23:48:46.506Z,97329.92
2023-03-03T23:51:20.219Z,97321.27
2023-03-03T23:53:53.905Z,97317.83
2023-03-03T23:56:27.460Z,97321.13
2023-03-03T23:59:01.074Z,97318.45
